Beverly, Washington
Current Conditions -  °F | °C
As of 9:56 PM on Thursday 30 Oct 2014 (Local Time) from K1YT Reporting Station
Light Rain Light Rain  
Wind Chill: 51°   Ceiling: 6000
Heat Index: 51°   Visibility: 10mi
Dew Point: 49°   Wind: 8mph
Humidity: 92%   Direction: 100°E
Pressure: 29.83"   Gusts: NA
Location:  46.84°N, 119.94°W
Report Text: K1YT 310456Z AUTO 10007KT 10SM -RA OVC060 11/09 A2983 RMK AO2 SLPNO P0002 T01070094
Loading
Personal Weather Stations






























Interactive Weather Map
Tropical Storm Tracking
New forecast layout! Learn more

10-Day Weather Forecast

Advertisements
Track Severe Weather on mobile